sensor_id;sensor_type;location;lat;lon;timestamp;temperature;humidity
48994;DHT22;34804;49.214;12.276;2023-12-14T00:01:54;6.20;96.40
48994;DHT22;34804;49.214;12.276;2023-12-14T00:04:21;6.20;96.40
48994;DHT22;34804;49.214;12.276;2023-12-14T00:06:48;6.20;96.40
48994;DHT22;34804;49.214;12.276;2023-12-14T00:09:15;6.20;96.30
48994;DHT22;34804;49.214;12.276;2023-12-14T00:11:42;6.20;96.30
48994;DHT22;34804;49.214;12.276;2023-12-14T00:14:09;6.20;96.30
48994;DHT22;34804;49.214;12.276;2023-12-14T00:16:36;6.20;96.30
48994;DHT22;34804;49.214;12.276;2023-12-14T00:19:02;6.20;96.30
48994;DHT22;34804;49.214;12.276;2023-12-14T00:21:29;6.20;96.10
48994;DHT22;34804;49.214;12.276;2023-12-14T00:23:56;6.20;96.10
48994;DHT22;34804;49.214;12.276;2023-12-14T00:26:23;6.20;96.00
48994;DHT22;34804;49.214;12.276;2023-12-14T00:28:50;6.20;95.90
48994;DHT22;34804;49.214;12.276;2023-12-14T00:31:23;6.30;95.70
48994;DHT22;34804;49.214;12.276;2023-12-14T00:33:50;6.20;95.40
48994;DHT22;34804;49.214;12.276;2023-12-14T00:36:18;6.20;95.20
48994;DHT22;34804;49.214;12.276;2023-12-14T00:38:45;6.20;95.20
48994;DHT22;34804;49.214;12.276;2023-12-14T00:41:13;6.20;95.20
48994;DHT22;34804;49.214;12.276;2023-12-14T00:43:40;6.20;95.10
48994;DHT22;34804;49.214;12.276;2023-12-14T00:46:07;6.10;95.10
48994;DHT22;34804;49.214;12.276;2023-12-14T00:48:34;6.10;95.20
48994;DHT22;34804;49.214;12.276;2023-12-14T00:51:01;6.10;95.10
48994;DHT22;34804;49.214;12.276;2023-12-14T00:53:28;6.10;95.30
48994;DHT22;34804;49.214;12.276;2023-12-14T00:55:55;6.00;95.40
48994;DHT22;34804;49.214;12.276;2023-12-14T00:58:22;6.00;95.50
48994;DHT22;34804;49.214;12.276;2023-12-14T01:00:48;6.10;95.40
48994;DHT22;34804;49.214;12.276;2023-12-14T01:03:15;6.10;95.50
48994;DHT22;34804;49.214;12.276;2023-12-14T01:05:42;6.00;95.60
48994;DHT22;34804;49.214;12.276;2023-12-14T01:08:09;6.10;95.60
48994;DHT22;34804;49.214;12.276;2023-12-14T01:10:36;6.10;95.40
48994;DHT22;34804;49.214;12.276;2023-12-14T01:13:03;6.10;95.40
48994;DHT22;34804;49.214;12.276;2023-12-14T01:15:30;6.10;95.40
48994;DHT22;34804;49.214;12.276;2023-12-14T01:17:56;6.10;95.40
48994;DHT22;34804;49.214;12.276;2023-12-14T01:20:24;6.00;95.40
48994;DHT22;34804;49.214;12.276;2023-12-14T01:22:50;6.00;95.40
48994;DHT22;34804;49.214;12.276;2023-12-14T01:25:17;6.00;95.30
48994;DHT22;34804;49.214;12.276;2023-12-14T01:27:44;5.90;95.40
48994;DHT22;34804;49.214;12.276;2023-12-14T01:30:11;5.90;95.50
48994;DHT22;34804;49.214;12.276;2023-12-14T01:32:38;5.90;95.60
48994;DHT22;34804;49.214;12.276;2023-12-14T01:35:05;5.90;95.60
48994;DHT22;34804;49.214;12.276;2023-12-14T01:37:32;5.90;95.60
48994;DHT22;34804;49.214;12.276;2023-12-14T01:39:59;5.90;95.60
48994;DHT22;34804;49.214;12.276;2023-12-14T01:42:26;5.90;95.60
48994;DHT22;34804;49.214;12.276;2023-12-14T01:44:53;5.90;95.60
48994;DHT22;34804;49.214;12.276;2023-12-14T01:47:20;5.90;95.60
48994;DHT22;34804;49.214;12.276;2023-12-14T01:49:47;5.90;95.50
48994;DHT22;34804;49.214;12.276;2023-12-14T01:52:13;5.90;95.60
48994;DHT22;34804;49.214;12.276;2023-12-14T01:54:40;5.90;95.60
48994;DHT22;34804;49.214;12.276;2023-12-14T01:57:07;5.90;95.60
48994;DHT22;34804;49.214;12.276;2023-12-14T01:59:34;5.90;95.60
48994;DHT22;34804;49.214;12.276;2023-12-14T02:02:01;5.90;95.60
48994;DHT22;34804;49.214;12.276;2023-12-14T02:04:29;5.90;95.60
48994;DHT22;34804;49.214;12.276;2023-12-14T02:06:57;5.90;95.60
48994;DHT22;34804;49.214;12.276;2023-12-14T02:09:24;5.80;95.50
48994;DHT22;34804;49.214;12.276;2023-12-14T02:11:51;5.90;95.60
48994;DHT22;34804;49.214;12.276;2023-12-14T02:14:21;5.90;95.60
48994;DHT22;34804;49.214;12.276;2023-12-14T02:16:48;5.90;95.60
48994;DHT22;34804;49.214;12.276;2023-12-14T02:19:15;5.90;95.60
48994;DHT22;34804;49.214;12.276;2023-12-14T02:21:42;5.90;95.60
48994;DHT22;34804;49.214;12.276;2023-12-14T02:24:09;5.80;95.60
48994;DHT22;34804;49.214;12.276;2023-12-14T02:26:36;5.90;95.60
48994;DHT22;34804;49.214;12.276;2023-12-14T02:29:02;5.80;95.60
48994;DHT22;34804;49.214;12.276;2023-12-14T02:31:29;5.80;95.60
48994;DHT22;34804;49.214;12.276;2023-12-14T02:33:56;5.80;95.70
48994;DHT22;34804;49.214;12.276;2023-12-14T02:36:23;5.80;95.70
48994;DHT22;34804;49.214;12.276;2023-12-14T02:38:50;5.80;95.70
48994;DHT22;34804;49.214;12.276;2023-12-14T02:41:17;5.80;95.70
48994;DHT22;34804;49.214;12.276;2023-12-14T02:43:44;5.80;95.80
48994;DHT22;34804;49.214;12.276;2023-12-14T02:46:11;5.80;95.80
48994;DHT22;34804;49.214;12.276;2023-12-14T02:48:41;5.80;95.90
48994;DHT22;34804;49.214;12.276;2023-12-14T02:51:15;5.80;95.90
48994;DHT22;34804;49.214;12.276;2023-12-14T02:53:42;5.80;95.90
48994;DHT22;34804;49.214;12.276;2023-12-14T02:56:10;5.80;95.90
48994;DHT22;34804;49.214;12.276;2023-12-14T02:58:38;5.80;95.90
48994;DHT22;34804;49.214;12.276;2023-12-14T03:01:05;5.80;95.90
48994;DHT22;34804;49.214;12.276;2023-12-14T03:03:32;5.80;95.80
48994;DHT22;34804;49.214;12.276;2023-12-14T03:05:59;5.80;95.90
48994;DHT22;34804;49.214;12.276;2023-12-14T03:08:26;5.80;95.90
48994;DHT22;34804;49.214;12.276;2023-12-14T03:10:52;5.80;95.90
48994;DHT22;34804;49.214;12.276;2023-12-14T03:13:20;5.90;95.80
48994;DHT22;34804;49.214;12.276;2023-12-14T03:15:47;5.90;95.70
48994;DHT22;34804;49.214;12.276;2023-12-14T03:18:15;5.90;95.60
48994;DHT22;34804;49.214;12.276;2023-12-14T03:20:42;5.90;95.50
48994;DHT22;34804;49.214;12.276;2023-12-14T03:23:09;5.90;95.40
48994;DHT22;34804;49.214;12.276;2023-12-14T03:25:36;5.90;95.30
48994;DHT22;34804;49.214;12.276;2023-12-14T03:28:03;5.90;95.40
48994;DHT22;34804;49.214;12.276;2023-12-14T03:30:30;5.80;95.40
48994;DHT22;34804;49.214;12.276;2023-12-14T03:32:56;5.80;95.40
48994;DHT22;34804;49.214;12.276;2023-12-14T03:35:23;5.80;95.40
48994;DHT22;34804;49.214;12.276;2023-12-14T03:37:50;5.80;95.30
48994;DHT22;34804;49.214;12.276;2023-12-14T03:40:17;5.80;95.10
48994;DHT22;34804;49.214;12.276;2023-12-14T03:42:44;5.80;95.20
48994;DHT22;34804;49.214;12.276;2023-12-14T03:45:11;5.80;95.20
48994;DHT22;34804;49.214;12.276;2023-12-14T03:47:38;5.80;95.30
48994;DHT22;34804;49.214;12.276;2023-12-14T03:50:05;5.80;95.30
48994;DHT22;34804;49.214;12.276;2023-12-14T03:52:33;5.80;95.20
48994;DHT22;34804;49.214;12.276;2023-12-14T03:55:01;5.80;95.10
48994;DHT22;34804;49.214;12.276;2023-12-14T03:57:28;5.70;95.10
48994;DHT22;34804;49.214;12.276;2023-12-14T03:59:55;5.70;95.10
48994;DHT22;34804;49.214;12.276;2023-12-14T04:02:22;5.70;95.20
48994;DHT22;34804;49.214;12.276;2023-12-14T04:04:49;5.70;95.20
48994;DHT22;34804;49.214;12.276;2023-12-14T04:07:16;5.70;95.10
48994;DHT22;34804;49.214;12.276;2023-12-14T04:09:44;5.60;95.20
48994;DHT22;34804;49.214;12.276;2023-12-14T04:12:11;5.60;95.20
48994;DHT22;34804;49.214;12.276;2023-12-14T04:14:38;5.60;95.20
48994;DHT22;34804;49.214;12.276;2023-12-14T04:17:04;5.70;95.30
48994;DHT22;34804;49.214;12.276;2023-12-14T04:19:31;5.70;95.20
48994;DHT22;34804;49.214;12.276;2023-12-14T04:21:58;5.60;95.10
48994;DHT22;34804;49.214;12.276;2023-12-14T04:24:25;5.60;95.10
48994;DHT22;34804;49.214;12.276;2023-12-14T04:26:52;5.60;95.20
48994;DHT22;34804;49.214;12.276;2023-12-14T04:29:19;5.60;95.10
48994;DHT22;34804;49.214;12.276;2023-12-14T04:31:45;5.50;95.10
48994;DHT22;34804;49.214;12.276;2023-12-14T04:34:12;5.50;95.20
48994;DHT22;34804;49.214;12.276;2023-12-14T04:36:42;5.60;95.30
48994;DHT22;34804;49.214;12.276;2023-12-14T04:39:09;5.60;95.30
48994;DHT22;34804;49.214;12.276;2023-12-14T04:41:36;5.60;95.30
48994;DHT22;34804;49.214;12.276;2023-12-14T04:44:03;5.60;95.20
48994;DHT22;34804;49.214;12.276;2023-12-14T04:46:30;5.60;95.10
48994;DHT22;34804;49.214;12.276;2023-12-14T04:48:57;5.60;95.10
48994;DHT22;34804;49.214;12.276;2023-12-14T04:51:24;5.60;94.90
48994;DHT22;34804;49.214;12.276;2023-12-14T04:53:51;5.50;94.90
48994;DHT22;34804;49.214;12.276;2023-12-14T04:56:18;5.50;95.00
48994;DHT22;34804;49.214;12.276;2023-12-14T04:58:45;5.40;94.80
48994;DHT22;34804;49.214;12.276;2023-12-14T05:01:12;5.40;95.10
48994;DHT22;34804;49.214;12.276;2023-12-14T05:03:39;5.40;95.10
48994;DHT22;34804;49.214;12.276;2023-12-14T05:06:06;5.30;95.20
48994;DHT22;34804;49.214;12.276;2023-12-14T05:08:34;5.40;95.30
48994;DHT22;34804;49.214;12.276;2023-12-14T05:11:00;5.40;95.20
48994;DHT22;34804;49.214;12.276;2023-12-14T05:13:28;5.40;95.10
48994;DHT22;34804;49.214;12.276;2023-12-14T05:15:54;5.40;95.10
48994;DHT22;34804;49.214;12.276;2023-12-14T05:18:22;5.40;95.00
48994;DHT22;34804;49.214;12.276;2023-12-14T05:20:49;5.40;95.00
48994;DHT22;34804;49.214;12.276;2023-12-14T05:23:16;5.40;95.10
48994;DHT22;34804;49.214;12.276;2023-12-14T05:25:44;5.50;94.90
48994;DHT22;34804;49.214;12.276;2023-12-14T05:28:11;5.50;94.90
48994;DHT22;34804;49.214;12.276;2023-12-14T05:30:38;5.40;94.90
48994;DHT22;34804;49.214;12.276;2023-12-14T05:33:05;5.40;94.90
48994;DHT22;34804;49.214;12.276;2023-12-14T05:35:33;5.40;95.00
48994;DHT22;34804;49.214;12.276;2023-12-14T05:38:00;5.50;95.00
48994;DHT22;34804;49.214;12.276;2023-12-14T05:40:27;5.40;95.00
48994;DHT22;34804;49.214;12.276;2023-12-14T05:42:54;5.40;95.00
48994;DHT22;34804;49.214;12.276;2023-12-14T05:45:21;5.40;95.00
48994;DHT22;34804;49.214;12.276;2023-12-14T05:47:48;5.40;94.90
48994;DHT22;34804;49.214;12.276;2023-12-14T05:50:15;5.40;94.90
48994;DHT22;34804;49.214;12.276;2023-12-14T05:52:42;5.30;95.00
48994;DHT22;34804;49.214;12.276;2023-12-14T05:55:09;5.30;94.80
48994;DHT22;34804;49.214;12.276;2023-12-14T05:57:37;5.20;94.80
48994;DHT22;34804;49.214;12.276;2023-12-14T06:00:05;5.20;94.90
48994;DHT22;34804;49.214;12.276;2023-12-14T06:02:32;5.10;94.90
48994;DHT22;34804;49.214;12.276;2023-12-14T06:05:00;5.10;94.80
48994;DHT22;34804;49.214;12.276;2023-12-14T06:07:28;5.10;94.80
48994;DHT22;34804;49.214;12.276;2023-12-14T06:09:54;5.00;94.80
48994;DHT22;34804;49.214;12.276;2023-12-14T06:12:21;4.90;94.80
48994;DHT22;34804;49.214;12.276;2023-12-14T06:14:48;4.80;94.80
48994;DHT22;34804;49.214;12.276;2023-12-14T06:17:15;4.80;94.90
48994;DHT22;34804;49.214;12.276;2023-12-14T06:19:42;4.80;94.90
48994;DHT22;34804;49.214;12.276;2023-12-14T06:22:09;4.70;94.80
48994;DHT22;34804;49.214;12.276;2023-12-14T06:24:36;4.70;94.90
48994;DHT22;34804;49.214;12.276;2023-12-14T06:27:02;4.70;94.90
48994;DHT22;34804;49.214;12.276;2023-12-14T06:29:30;4.70;95.00
48994;DHT22;34804;49.214;12.276;2023-12-14T06:31:57;4.70;95.00
48994;DHT22;34804;49.214;12.276;2023-12-14T06:34:24;4.70;95.00
48994;DHT22;34804;49.214;12.276;2023-12-14T06:36:52;4.70;95.00
48994;DHT22;34804;49.214;12.276;2023-12-14T06:39:18;4.80;95.10
48994;DHT22;34804;49.214;12.276;2023-12-14T06:41:46;4.80;95.10
48994;DHT22;34804;49.214;12.276;2023-12-14T06:44:14;4.80;95.20
48994;DHT22;34804;49.214;12.276;2023-12-14T06:46:41;4.80;95.40
48994;DHT22;34804;49.214;12.276;2023-12-14T06:49:07;4.90;95.70
48994;DHT22;34804;49.214;12.276;2023-12-14T06:51:34;5.00;95.70
48994;DHT22;34804;49.214;12.276;2023-12-14T06:54:01;5.00;95.50
48994;DHT22;34804;49.214;12.276;2023-12-14T06:56:28;5.00;95.50
48994;DHT22;34804;49.214;12.276;2023-12-14T06:58:55;5.00;95.50
48994;DHT22;34804;49.214;12.276;2023-12-14T07:01:22;5.00;95.40
48994;DHT22;34804;49.214;12.276;2023-12-14T07:03:49;5.00;95.60
48994;DHT22;34804;49.214;12.276;2023-12-14T07:06:17;5.10;95.50
48994;DHT22;34804;49.214;12.276;2023-12-14T07:08:45;5.00;95.50
48994;DHT22;34804;49.214;12.276;2023-12-14T07:11:12;5.10;95.50
48994;DHT22;34804;49.214;12.276;2023-12-14T07:13:40;5.10;95.60
48994;DHT22;34804;49.214;12.276;2023-12-14T07:16:08;5.10;95.70
48994;DHT22;34804;49.214;12.276;2023-12-14T07:18:36;5.10;95.70
48994;DHT22;34804;49.214;12.276;2023-12-14T07:21:03;5.20;95.70
48994;DHT22;34804;49.214;12.276;2023-12-14T07:23:31;5.20;95.70
48994;DHT22;34804;49.214;12.276;2023-12-14T07:25:58;5.20;95.70
48994;DHT22;34804;49.214;12.276;2023-12-14T07:28:29;5.20;95.60
48994;DHT22;34804;49.214;12.276;2023-12-14T07:30:56;5.20;95.70
48994;DHT22;34804;49.214;12.276;2023-12-14T07:33:24;5.30;95.70
48994;DHT22;34804;49.214;12.276;2023-12-14T07:35:51;5.30;95.70
48994;DHT22;34804;49.214;12.276;2023-12-14T07:38:18;5.30;95.70
48994;DHT22;34804;49.214;12.276;2023-12-14T07:40:45;5.40;95.80
48994;DHT22;34804;49.214;12.276;2023-12-14T07:43:13;5.40;95.60
48994;DHT22;34804;49.214;12.276;2023-12-14T07:45:40;5.40;95.70
48994;DHT22;34804;49.214;12.276;2023-12-14T07:48:07;5.40;95.50
48994;DHT22;34804;49.214;12.276;2023-12-14T07:50:34;5.40;95.60
48994;DHT22;34804;49.214;12.276;2023-12-14T07:53:01;5.50;95.50
48994;DHT22;34804;49.214;12.276;2023-12-14T07:55:28;5.50;95.70
48994;DHT22;34804;49.214;12.276;2023-12-14T07:57:55;5.60;95.60
48994;DHT22;34804;49.214;12.276;2023-12-14T08:00:22;5.60;95.40
48994;DHT22;34804;49.214;12.276;2023-12-14T08:02:49;5.70;95.30
48994;DHT22;34804;49.214;12.276;2023-12-14T08:05:16;5.70;95.10
48994;DHT22;34804;49.214;12.276;2023-12-14T08:07:43;5.80;95.00
48994;DHT22;34804;49.214;12.276;2023-12-14T08:10:10;5.80;94.80
48994;DHT22;34804;49.214;12.276;2023-12-14T08:12:37;5.80;94.80
48994;DHT22;34804;49.214;12.276;2023-12-14T08:15:04;5.80;94.20
48994;DHT22;34804;49.214;12.276;2023-12-14T08:17:31;5.80;94.10
48994;DHT22;34804;49.214;12.276;2023-12-14T08:19:58;5.80;94.10
48994;DHT22;34804;49.214;12.276;2023-12-14T08:22:25;5.80;94.00
48994;DHT22;34804;49.214;12.276;2023-12-14T08:24:52;5.80;94.20
48994;DHT22;34804;49.214;12.276;2023-12-14T08:27:19;5.80;94.20
48994;DHT22;34804;49.214;12.276;2023-12-14T08:29:45;5.80;94.00
48994;DHT22;34804;49.214;12.276;2023-12-14T08:32:12;5.90;94.00
48994;DHT22;34804;49.214;12.276;2023-12-14T08:34:40;5.80;93.80
48994;DHT22;34804;49.214;12.276;2023-12-14T08:37:07;5.80;93.60
48994;DHT22;34804;49.214;12.276;2023-12-14T08:39:34;5.90;93.50
48994;DHT22;34804;49.214;12.276;2023-12-14T08:42:01;5.90;93.40
48994;DHT22;34804;49.214;12.276;2023-12-14T08:44:28;5.90;93.50
48994;DHT22;34804;49.214;12.276;2023-12-14T08:46:55;6.10;93.60
48994;DHT22;34804;49.214;12.276;2023-12-14T08:49:22;6.10;93.60
48994;DHT22;34804;49.214;12.276;2023-12-14T08:51:50;6.20;93.00
48994;DHT22;34804;49.214;12.276;2023-12-14T08:54:17;6.20;92.60
48994;DHT22;34804;49.214;12.276;2023-12-14T08:56:44;6.30;92.50
48994;DHT22;34804;49.214;12.276;2023-12-14T08:59:11;6.30;92.50
48994;DHT22;34804;49.214;12.276;2023-12-14T09:01:38;6.30;92.50
48994;DHT22;34804;49.214;12.276;2023-12-14T09:04:06;6.30;92.20
48994;DHT22;34804;49.214;12.276;2023-12-14T09:06:33;6.40;92.50
48994;DHT22;34804;49.214;12.276;2023-12-14T09:08:59;6.40;92.60
48994;DHT22;34804;49.214;12.276;2023-12-14T09:11:30;6.40;92.30
48994;DHT22;34804;49.214;12.276;2023-12-14T09:13:57;6.40;92.30
48994;DHT22;34804;49.214;12.276;2023-12-14T09:16:24;6.40;92.20
48994;DHT22;34804;49.214;12.276;2023-12-14T09:18:50;6.40;92.10
48994;DHT22;34804;49.214;12.276;2023-12-14T09:21:17;6.40;92.00
48994;DHT22;34804;49.214;12.276;2023-12-14T09:23:48;6.40;91.80
48994;DHT22;34804;49.214;12.276;2023-12-14T09:26:15;6.40;91.70
48994;DHT22;34804;49.214;12.276;2023-12-14T09:28:42;6.40;92.00
48994;DHT22;34804;49.214;12.276;2023-12-14T09:31:09;6.30;92.10
48994;DHT22;34804;49.214;12.276;2023-12-14T09:33:36;6.20;92.00
48994;DHT22;34804;49.214;12.276;2023-12-14T09:36:04;6.30;92.00
48994;DHT22;34804;49.214;12.276;2023-12-14T09:38:31;6.40;91.60
48994;DHT22;34804;49.214;12.276;2023-12-14T09:40:57;6.30;92.10
48994;DHT22;34804;49.214;12.276;2023-12-14T09:43:24;6.30;92.20
48994;DHT22;34804;49.214;12.276;2023-12-14T09:45:52;6.20;92.20
48994;DHT22;34804;49.214;12.276;2023-12-14T09:48:19;6.20;92.70
48994;DHT22;34804;49.214;12.276;2023-12-14T09:50:47;6.20;92.50
48994;DHT22;34804;49.214;12.276;2023-12-14T09:53:14;6.20;92.40
48994;DHT22;34804;49.214;12.276;2023-12-14T09:55:41;6.20;92.20
48994;DHT22;34804;49.214;12.276;2023-12-14T09:58:09;6.20;92.40
48994;DHT22;34804;49.214;12.276;2023-12-14T10:00:39;6.20;92.50
48994;DHT22;34804;49.214;12.276;2023-12-14T10:03:25;6.20;92.80
48994;DHT22;34804;49.214;12.276;2023-12-14T10:05:56;6.20;92.70
48994;DHT22;34804;49.214;12.276;2023-12-14T10:08:25;6.20;92.30
48994;DHT22;34804;49.214;12.276;2023-12-14T10:10:54;6.20;92.40
48994;DHT22;34804;49.214;12.276;2023-12-14T10:13:37;6.30;92.40
48994;DHT22;34804;49.214;12.276;2023-12-14T10:16:04;6.40;92.10
48994;DHT22;34804;49.214;12.276;2023-12-14T10:18:32;6.40;91.90
48994;DHT22;34804;49.214;12.276;2023-12-14T10:21:06;6.40;91.90
48994;DHT22;34804;49.214;12.276;2023-12-14T10:23:33;6.40;92.10
48994;DHT22;34804;49.214;12.276;2023-12-14T10:26:02;6.50;91.90
48994;DHT22;34804;49.214;12.276;2023-12-14T10:28:30;6.50;91.60
48994;DHT22;34804;49.214;12.276;2023-12-14T10:30:57;6.50;91.90
48994;DHT22;34804;49.214;12.276;2023-12-14T10:33:24;6.60;92.00
48994;DHT22;34804;49.214;12.276;2023-12-14T10:35:53;6.50;92.00
48994;DHT22;34804;49.214;12.276;2023-12-14T10:38:20;6.50;91.80
48994;DHT22;34804;49.214;12.276;2023-12-14T10:40:47;6.50;92.20
48994;DHT22;34804;49.214;12.276;2023-12-14T10:43:15;6.60;92.30
48994;DHT22;34804;49.214;12.276;2023-12-14T10:46:05;6.70;92.30
48994;DHT22;34804;49.214;12.276;2023-12-14T10:48:35;6.80;92.10
48994;DHT22;34804;49.214;12.276;2023-12-14T10:51:03;6.80;92.00
48994;DHT22;34804;49.214;12.276;2023-12-14T10:53:33;6.80;91.80
48994;DHT22;34804;49.214;12.276;2023-12-14T10:56:02;6.80;91.60
48994;DHT22;34804;49.214;12.276;2023-12-14T10:58:46;6.80;91.80
48994;DHT22;34804;49.214;12.276;2023-12-14T11:01:15;6.90;91.70
48994;DHT22;34804;49.214;12.276;2023-12-14T11:03:43;7.10;91.50
48994;DHT22;34804;49.214;12.276;2023-12-14T11:09:04;7.30;91.10
48994;DHT22;34804;49.214;12.276;2023-12-14T11:14:20;7.50;90.10
48994;DHT22;34804;49.214;12.276;2023-12-14T11:16:48;7.40;90.20
48994;DHT22;34804;49.214;12.276;2023-12-14T11:24:31;7.50;90.60
48994;DHT22;34804;49.214;12.276;2023-12-14T11:26:57;7.50;90.40
48994;DHT22;34804;49.214;12.276;2023-12-14T11:29:26;7.60;90.20
48994;DHT22;34804;49.214;12.276;2023-12-14T11:31:53;7.70;90.20
48994;DHT22;34804;49.214;12.276;2023-12-14T11:34:20;7.70;89.60
48994;DHT22;34804;49.214;12.276;2023-12-14T11:36:50;7.70;89.50
48994;DHT22;34804;49.214;12.276;2023-12-14T11:39:17;7.60;89.50
48994;DHT22;34804;49.214;12.276;2023-12-14T11:42:01;7.60;90.30
48994;DHT22;34804;49.214;12.276;2023-12-14T11:44:29;7.50;90.30
48994;DHT22;34804;49.214;12.276;2023-12-14T11:46:57;7.50;90.30
48994;DHT22;34804;49.214;12.276;2023-12-14T11:49:25;7.50;90.20
48994;DHT22;34804;49.214;12.276;2023-12-14T11:51:56;7.40;90.40
48994;DHT22;34804;49.214;12.276;2023-12-14T11:54:23;7.50;91.10
48994;DHT22;34804;49.214;12.276;2023-12-14T11:56:50;7.60;90.30
48994;DHT22;34804;49.214;12.276;2023-12-14T11:59:18;7.50;90.80
48994;DHT22;34804;49.214;12.276;2023-12-14T12:01:59;7.50;90.20
48994;DHT22;34804;49.214;12.276;2023-12-14T12:04:27;7.50;90.10
48994;DHT22;34804;49.214;12.276;2023-12-14T12:07:04;7.50;90.40
48994;DHT22;34804;49.214;12.276;2023-12-14T12:09:37;7.50;91.00
48994;DHT22;34804;49.214;12.276;2023-12-14T12:12:12;7.60;90.40
48994;DHT22;34804;49.214;12.276;2023-12-14T12:14:39;7.50;89.80
48994;DHT22;34804;49.214;12.276;2023-12-14T12:17:07;7.60;90.40
48994;DHT22;34804;49.214;12.276;2023-12-14T12:19:35;7.60;90.70
48994;DHT22;34804;49.214;12.276;2023-12-14T12:22:03;7.60;89.30
48994;DHT22;34804;49.214;12.276;2023-12-14T12:24:30;7.40;90.70
48994;DHT22;34804;49.214;12.276;2023-12-14T12:27:00;7.50;90.60
48994;DHT22;34804;49.214;12.276;2023-12-14T12:29:27;7.50;91.10
48994;DHT22;34804;49.214;12.276;2023-12-14T12:31:55;7.50;91.00
48994;DHT22;34804;49.214;12.276;2023-12-14T12:34:21;7.40;90.60
48994;DHT22;34804;49.214;12.276;2023-12-14T12:36:48;7.40;90.90
48994;DHT22;34804;49.214;12.276;2023-12-14T12:39:15;7.40;91.00
48994;DHT22;34804;49.214;12.276;2023-12-14T12:41:42;7.40;90.90
48994;DHT22;34804;49.214;12.276;2023-12-14T12:44:09;7.40;91.00
48994;DHT22;34804;49.214;12.276;2023-12-14T12:46:37;7.40;90.50
48994;DHT22;34804;49.214;12.276;2023-12-14T12:49:05;7.40;90.60
48994;DHT22;34804;49.214;12.276;2023-12-14T12:51:32;7.40;91.00
48994;DHT22;34804;49.214;12.276;2023-12-14T12:54:00;7.30;90.70
48994;DHT22;34804;49.214;12.276;2023-12-14T12:56:38;7.30;90.90
48994;DHT22;34804;49.214;12.276;2023-12-14T12:59:06;7.20;91.10
48994;DHT22;34804;49.214;12.276;2023-12-14T13:01:36;7.30;91.10
48994;DHT22;34804;49.214;12.276;2023-12-14T13:04:03;7.30;91.40
48994;DHT22;34804;49.214;12.276;2023-12-14T13:06:31;7.20;91.30
48994;DHT22;34804;49.214;12.276;2023-12-14T13:08:58;7.20;91.70
48994;DHT22;34804;49.214;12.276;2023-12-14T13:11:25;7.10;92.00
48994;DHT22;34804;49.214;12.276;2023-12-14T13:13:52;7.10;92.10
48994;DHT22;34804;49.214;12.276;2023-12-14T13:16:19;7.00;92.40
48994;DHT22;34804;49.214;12.276;2023-12-14T13:18:46;7.00;92.40
48994;DHT22;34804;49.214;12.276;2023-12-14T13:21:13;7.00;92.40
48994;DHT22;34804;49.214;12.276;2023-12-14T13:23:40;6.90;92.60
48994;DHT22;34804;49.214;12.276;2023-12-14T13:26:08;6.80;92.80
48994;DHT22;34804;49.214;12.276;2023-12-14T13:28:35;6.80;92.80
48994;DHT22;34804;49.214;12.276;2023-12-14T13:31:02;6.80;93.00
48994;DHT22;34804;49.214;12.276;2023-12-14T13:33:29;6.80;92.90
48994;DHT22;34804;49.214;12.276;2023-12-14T13:35:56;6.80;92.90
48994;DHT22;34804;49.214;12.276;2023-12-14T13:38:23;6.80;92.80
48994;DHT22;34804;49.214;12.276;2023-12-14T13:40:50;6.80;92.70
48994;DHT22;34804;49.214;12.276;2023-12-14T13:43:37;6.80;92.60
48994;DHT22;34804;49.214;12.276;2023-12-14T13:46:04;6.90;92.30
48994;DHT22;34804;49.214;12.276;2023-12-14T13:48:46;6.80;92.40
48994;DHT22;34804;49.214;12.276;2023-12-14T13:51:13;6.80;92.00
48994;DHT22;34804;49.214;12.276;2023-12-14T13:53:42;6.80;92.40
48994;DHT22;34804;49.214;12.276;2023-12-14T13:56:10;6.80;92.30
48994;DHT22;34804;49.214;12.276;2023-12-14T13:58:40;6.80;92.30
48994;DHT22;34804;49.214;12.276;2023-12-14T14:01:07;6.70;92.20
48994;DHT22;34804;49.214;12.276;2023-12-14T14:03:37;6.70;92.40
48994;DHT22;34804;49.214;12.276;2023-12-14T14:06:05;6.70;92.30
48994;DHT22;34804;49.214;12.276;2023-12-14T14:08:32;6.70;92.40
48994;DHT22;34804;49.214;12.276;2023-12-14T14:10:59;6.70;92.60
48994;DHT22;34804;49.214;12.276;2023-12-14T14:13:27;6.70;92.80
48994;DHT22;34804;49.214;12.276;2023-12-14T14:15:54;6.70;92.60
48994;DHT22;34804;49.214;12.276;2023-12-14T14:18:21;6.80;92.30
48994;DHT22;34804;49.214;12.276;2023-12-14T14:20:48;6.70;92.30
48994;DHT22;34804;49.214;12.276;2023-12-14T14:23:16;6.70;92.30
48994;DHT22;34804;49.214;12.276;2023-12-14T14:25:43;6.60;92.30
48994;DHT22;34804;49.214;12.276;2023-12-14T14:28:10;6.60;92.30
48994;DHT22;34804;49.214;12.276;2023-12-14T14:30:37;6.60;92.30
48994;DHT22;34804;49.214;12.276;2023-12-14T14:33:04;6.70;92.10
48994;DHT22;34804;49.214;12.276;2023-12-14T14:35:33;6.70;92.10
48994;DHT22;34804;49.214;12.276;2023-12-14T14:38:00;6.70;92.10
48994;DHT22;34804;49.214;12.276;2023-12-14T14:40:28;6.70;92.00
48994;DHT22;34804;49.214;12.276;2023-12-14T14:42:55;6.70;92.10
48994;DHT22;34804;49.214;12.276;2023-12-14T14:45:21;6.70;92.20
48994;DHT22;34804;49.214;12.276;2023-12-14T14:47:48;6.60;92.20
48994;DHT22;34804;49.214;12.276;2023-12-14T14:50:15;6.60;92.40
48994;DHT22;34804;49.214;12.276;2023-12-14T14:52:42;6.60;92.40
48994;DHT22;34804;49.214;12.276;2023-12-14T14:55:09;6.60;92.40
48994;DHT22;34804;49.214;12.276;2023-12-14T14:57:36;6.60;92.50
48994;DHT22;34804;49.214;12.276;2023-12-14T15:00:04;6.50;92.40
48994;DHT22;34804;49.214;12.276;2023-12-14T15:02:32;6.40;92.50
48994;DHT22;34804;49.214;12.276;2023-12-14T15:04:59;6.50;92.50
48994;DHT22;34804;49.214;12.276;2023-12-14T15:07:26;6.40;92.70
48994;DHT22;34804;49.214;12.276;2023-12-14T15:09:55;6.50;92.70
48994;DHT22;34804;49.214;12.276;2023-12-14T15:12:22;6.40;92.80
48994;DHT22;34804;49.214;12.276;2023-12-14T15:14:49;6.40;92.80
48994;DHT22;34804;49.214;12.276;2023-12-14T15:17:16;6.40;92.90
48994;DHT22;34804;49.214;12.276;2023-12-14T15:19:45;6.40;92.90
48994;DHT22;34804;49.214;12.276;2023-12-14T15:22:13;6.30;93.10
48994;DHT22;34804;49.214;12.276;2023-12-14T15:24:40;6.30;93.20
48994;DHT22;34804;49.214;12.276;2023-12-14T15:27:08;6.30;93.40
48994;DHT22;34804;49.214;12.276;2023-12-14T15:29:35;6.20;93.50
48994;DHT22;34804;49.214;12.276;2023-12-14T15:32:02;6.30;93.70
48994;DHT22;34804;49.214;12.276;2023-12-14T15:34:29;6.20;93.80
48994;DHT22;34804;49.214;12.276;2023-12-14T15:36:56;6.10;93.90
48994;DHT22;34804;49.214;12.276;2023-12-14T15:39:23;6.10;93.90
48994;DHT22;34804;49.214;12.276;2023-12-14T15:41:50;6.20;94.10
48994;DHT22;34804;49.214;12.276;2023-12-14T15:44:17;6.10;94.10